Terminal Aerodrome Forecast
Issued by NWS

Home | Current Version | Previous Version | Text Only | Print | Product List | Glossary On
Versions: 1 2 3 4 5 6 7 8 9 10 11 12 13 14 15
000
FTUS45 KREV 242300
TAFRNO
TAF
KRNO 242335Z 2500/2524 23015G25KT P6SM SKC
     FM250200 22008G14KT P6SM SKC
     FM250600 21008KT P6SM SKC
     FM251000 20012G25KT P6SM SCT200
     FM251900 28026G38KT P6SM SCT100 BKN160=

USA.gov is the U.S. government's official web portal to all federal, state and local government web resources and services.